Time;durP1;ratioP1;P1;durP2;ratioP2;P2;SDS_P1;SDS_P2;PMS_P1;PMS_P2;Temp;Humidity;BMP_temperature;BMP_pressure;BME280_temperature;BME280_humidity;BME280_pressure;Samples;Min_cycle;Max_cycle;Signal;HPM_P1;HPM_P2
2023/10/16 00:02:12;;;;;;;6.18;0.80;;;;;;;10.50;67.99;101532.13;5038976;27;96934;-77
2023/10/16 00:04:43;;;;;;;7.13;1.00;;;;;;;10.42;68.77;101526.19;5046309;27;101240;-77
2023/10/16 00:07:11;;;;;;;4.18;1.20;;;;;;;10.35;69.19;101529.84;5043460;27;98172;-76
2023/10/16 00:09:39;;;;;;;6.07;0.70;;;;;;;10.64;68.01;101537.09;5044677;27;96735;-76
2023/10/16 00:12:08;;;;;;;5.97;1.30;;;;;;;10.70;67.65;101526.38;5046956;27;96951;-76
2023/10/16 00:14:35;;;;;;;6.50;1.30;;;;;;;10.52;68.02;101535.63;5045140;27;99643;-78
2023/10/16 00:17:03;;;;;;;4.47;0.93;;;;;;;10.57;68.14;101543.44;5045949;27;98552;-78
2023/10/16 00:19:33;;;;;;;3.13;0.70;;;;;;;10.69;67.57;101532.59;5040821;27;97301;-77
2023/10/16 00:21:59;;;;;;;4.15;1.02;;;;;;;10.74;66.33;101536.88;5040039;27;97074;-77
2023/10/16 00:24:26;;;;;;;9.65;0.98;;;;;;;10.87;66.46;101539.22;5047162;27;102129;-77
2023/10/16 00:26:52;;;;;;;5.20;0.80;;;;;;;10.63;67.28;101546.81;5050213;27;98730;-78
2023/10/16 00:29:23;;;;;;;6.78;1.27;;;;;;;10.75;66.53;101540.38;5044608;27;96809;-79
2023/10/16 00:31:51;;;;;;;10.25;1.17;;;;;;;10.72;67.03;101541.31;5050646;27;97204;-78
2023/10/16 00:34:20;;;;;;;7.65;1.67;;;;;;;10.65;67.51;101541.50;5046675;27;99231;-77
2023/10/16 00:36:47;;;;;;;8.30;1.10;;;;;;;10.73;67.19;101545.69;5044432;27;99335;-78
2023/10/16 00:39:13;;;;;;;6.25;1.13;;;;;;;10.72;66.99;101541.31;5043554;27;97716;-78
2023/10/16 00:41:40;;;;;;;4.30;0.82;;;;;;;10.74;66.97;101544.81;5046278;27;96797;-78
2023/10/16 00:44:07;;;;;;;4.88;0.82;;;;;;;10.73;66.57;101544.84;5047792;27;99471;-78
2023/10/16 00:46:37;;;;;;;7.50;0.90;;;;;;;10.62;67.03;101544.22;5047713;27;98933;-78
2023/10/16 00:49:05;;;;;;;12.18;1.60;;;;;;;10.38;68.35;101540.34;5048436;27;96869;-79
2023/10/16 00:51:33;;;;;;;5.82;0.90;;;;;;;10.26;68.82;101540.63;5049511;27;96783;-80
2023/10/16 00:54:00;;;;;;;17.48;1.33;;;;;;;10.45;68.40;101541.06;5047516;27;97832;-79
2023/10/16 00:56:27;;;;;;;5.55;0.60;;;;;;;10.40;67.95;101527.97;5045823;27;99010;-79
2023/10/16 00:58:56;;;;;;;5.57;0.90;;;;;;;10.44;67.79;101539.31;5047902;27;98410;-80
2023/10/16 01:01:22;;;;;;;3.67;0.82;;;;;;;10.33;68.70;101539.56;5052974;27;96911;-79
2023/10/16 01:03:52;;;;;;;7.25;0.95;;;;;;;10.44;68.17;101534.03;5040220;27;100846;-79
2023/10/16 01:06:21;;;;;;;10.35;1.25;;;;;;;10.57;67.68;101540.78;5047607;27;98596;-79
2023/10/16 01:08:50;;;;;;;12.57;0.93;;;;;;;10.80;66.72;101551.72;5047395;27;96909;-80
2023/10/16 01:11:18;;;;;;;3.13;0.70;;;;;;;10.71;66.82;101544.00;5050286;27;97099;-79
2023/10/16 01:13:47;;;;;;;8.65;0.98;;;;;;;10.82;66.53;101551.69;5047693;27;101373;-79
2023/10/16 01:16:16;;;;;;;6.55;1.00;;;;;;;10.53;67.81;101549.72;5046858;27;98771;-79
2023/10/16 01:18:42;;;;;;;6.97;0.80;;;;;;;10.41;68.10;101548.22;5051313;27;98995;-79
2023/10/16 01:21:13;;;;;;;10.35;1.00;;;;;;;10.34;68.46;101544.84;5050026;27;96788;-79
2023/10/16 01:23:44;;;;;;;4.55;1.10;;;;;;;10.20;69.09;101551.31;5048912;27;99395;-78
2023/10/16 01:26:13;;;;;;;7.85;1.42;;;;;;;10.39;68.93;101531.50;5050076;27;99330;-78
2023/10/16 01:28:39;;;;;;;6.80;1.00;;;;;;;10.13;69.47;101536.47;5051781;27;96829;-78
2023/10/16 01:31:06;;;;;;;4.63;1.00;;;;;;;10.30;68.64;101537.91;5050423;27;96899;-78
2023/10/16 01:33:32;;;;;;;2.95;0.80;;;;;;;10.22;69.30;101538.94;5049608;27;98881;-78
2023/10/16 01:35:58;;;;;;;7.05;0.75;;;;;;;10.24;69.09;101538.00;5053283;27;97655;-78
2023/10/16 01:38:26;;;;;;;9.20;0.90;;;;;;;10.00;69.98;101544.63;5051149;27;96797;-79
2023/10/16 01:41:05;;;;;;;2.33;0.73;;;;;;;10.17;69.99;101533.78;5050639;27;97090;-76
2023/10/16 01:43:32;;;;;;;5.70;1.48;;;;;;;10.21;69.39;101534.56;5051984;27;100925;-78
2023/10/16 01:46:03;;;;;;;7.57;1.17;;;;;;;10.47;68.24;101540.16;5050281;27;98804;-77
2023/10/16 01:48:30;;;;;;;2.72;0.60;;;;;;;10.52;67.88;101532.09;5052195;27;96753;-78
2023/10/16 01:50:57;;;;;;;6.40;1.13;;;;;;;10.38;68.63;101532.41;5048093;27;97235;-78
2023/10/16 01:53:26;;;;;;;5.90;1.17;;;;;;;10.30;68.62;101539.66;5047834;27;99094;-77
2023/10/16 01:55:57;;;;;;;5.65;0.77;;;;;;;10.43;68.94;101538.50;5049427;27;99033;-79
2023/10/16 01:58:25;;;;;;;6.22;0.98;;;;;;;10.28;69.16;101544.97;5045414;27;98868;-78
2023/10/16 02:00:52;;;;;;;4.05;0.65;;;;;;;10.16;69.52;101539.91;5050896;27;97182;-77
2023/10/16 02:03:19;;;;;;;6.72;1.25;;;;;;;10.40;69.08;101546.47;5045477;27;99327;-77
2023/10/16 02:05:46;;;;;;;8.18;1.15;;;;;;;10.24;69.42;101548.56;5051517;27;99198;-77
2023/10/16 02:08:13;;;;;;;4.22;0.90;;;;;;;9.99;70.45;101548.19;5049578;27;96908;-77
2023/10/16 02:10:40;;;;;;;6.05;0.82;;;;;;;9.92;70.86;101551.84;5049614;27;96875;-78
2023/10/16 02:13:08;;;;;;;7.22;1.38;;;;;;;10.18;70.10;101542.53;5048219;27;99392;-78
2023/10/16 02:15:36;;;;;;;6.20;0.93;;;;;;;10.21;70.09;101538.06;5049724;27;98934;-78
2023/10/16 02:18:04;;;;;;;3.38;1.00;;;;;;;10.28;69.08;101544.97;5051688;27;96916;-77
2023/10/16 02:20:36;;;;;;;7.78;0.90;;;;;;;10.59;67.75;101547.78;5051135;27;96694;-78
2023/10/16 02:23:02;;;;;;;6.57;0.90;;;;;;;10.62;67.32;101554.78;5052395;27;99520;-78
2023/10/16 02:25:29;;;;;;;11.00;1.10;;;;;;;10.54;67.88;101552.31;5050245;27;99222;-78
2023/10/16 02:27:55;;;;;;;5.20;0.90;;;;;;;10.25;69.29;101542.38;5053132;27;96882;-78
2023/10/16 02:30:35;;;;;;;4.03;0.82;;;;;;;10.45;68.66;101552.50;5049775;27;96916;-78
2023/10/16 02:33:12;;;;;;;6.75;1.58;;;;;;;10.52;67.77;101551.47;5046155;27;99483;-78
2023/10/16 02:35:38;;;;;;;5.53;0.80;;;;;;;10.54;67.79;101544.41;5046798;27;100022;-77
2023/10/16 02:38:05;;;;;;;5.55;0.70;;;;;;;10.35;68.67;101543.94;5049619;27;97255;-77
2023/10/16 02:40:32;;;;;;;6.75;1.02;;;;;;;10.38;68.88;101548.25;5050723;27;96857;-78
2023/10/16 02:43:04;;;;;;;5.25;1.17;;;;;;;10.51;68.14;101548.84;5051645;27;98995;-78
2023/10/16 02:45:33;;;;;;;4.82;0.98;;;;;;;10.46;68.35;101545.47;5049892;27;101459;-78
2023/10/16 02:48:01;;;;;;;3.20;0.80;;;;;;;10.32;68.61;101548.41;5052709;27;97091;-77
2023/10/16 02:50:28;;;;;;;9.48;0.70;;;;;;;10.33;68.52;101547.50;5050303;27;97255;-78
2023/10/16 02:52:56;;;;;;;9.27;1.02;;;;;;;10.30;68.88;101550.22;5046713;27;99504;-78
2023/10/16 02:55:23;;;;;;;5.85;1.67;;;;;;;10.17;69.31;101554.03;5049142;27;97979;-78
2023/10/16 02:57:50;;;;;;;3.90;0.77;;;;;;;10.20;69.24;101554.81;5047322;27;97455;-78
2023/10/16 03:00:24;;;;;;;9.35;0.75;;;;;;;10.21;69.69;101559.22;5044341;27;97697;-77
2023/10/16 03:02:52;;;;;;;10.05;1.33;;;;;;;10.21;69.34;101550.41;5050969;27;98982;-77
2023/10/16 03:05:24;;;;;;;6.50;1.02;;;;;;;10.15;69.31;101559.31;5048990;27;99159;-76
2023/10/16 03:07:51;;;;;;;8.90;1.00;;;;;;;9.84;70.98;101553.78;5050729;27;96773;-76
2023/10/16 03:10:20;;;;;;;4.53;1.00;;;;;;;10.09;70.25;101561.19;5049441;27;97520;-75
2023/10/16 03:12:49;;;;;;;6.25;0.80;;;;;;;10.15;69.95;101559.31;5049754;27;98443;-75
2023/10/16 03:15:20;;;;;;;7.07;1.00;;;;;;;10.11;69.84;101554.13;5051409;27;99127;-75
2023/10/16 03:17:50;;;;;;;7.80;0.93;;;;;;;10.02;70.24;101549.03;5049238;27;98315;-75
2023/10/16 03:20:21;;;;;;;8.20;1.08;;;;;;;10.03;70.07;101556.06;5048122;27;97115;-75
2023/10/16 03:22:48;;;;;;;6.53;1.13;;;;;;;9.83;70.66;101562.59;5044445;27;98918;-76
2023/10/16 03:25:28;;;;;;;6.35;1.02;;;;;;;9.95;70.61;101562.34;5045793;27;98885;-75
2023/10/16 03:27:55;;;;;;;3.45;1.05;;;;;;;10.01;70.68;101564.00;5050650;27;99992;-75
2023/10/16 03:30:21;;;;;;;8.25;1.20;;;;;;;10.10;69.75;101566.47;5042999;27;96961;-75
2023/10/16 03:32:48;;;;;;;4.25;0.90;;;;;;;10.17;69.93;101562.81;5050395;27;99112;-76
2023/10/16 03:35:20;;;;;;;8.00;0.70;;;;;;;10.15;69.74;101561.94;5049928;27;98160;-76
2023/10/16 03:37:49;;;;;;;11.73;1.45;;;;;;;9.95;70.81;101557.06;5052035;27;97457;-78
2023/10/16 03:40:19;;;;;;;5.68;0.75;;;;;;;9.90;70.98;101566.88;5051083;27;98612;-77
2023/10/16 03:42:46;;;;;;;5.82;1.10;;;;;;;9.51;73.24;101567.63;5047318;27;98928;-78
2023/10/16 03:45:13;;;;;;;7.22;0.90;;;;;;;9.66;72.14;101564.66;5046605;27;99163;-78
2023/10/16 03:47:40;;;;;;;5.85;0.80;;;;;;;9.73;72.42;101568.94;5047496;27;98482;-78
2023/10/16 03:50:08;;;;;;;10.75;1.30;;;;;;;9.75;71.87;101564.50;5052557;27;98504;-82
2023/10/16 03:52:34;;;;;;;10.48;1.20;;;;;;;9.68;72.65;101570.81;5061667;27;98921;-82
2023/10/16 03:55:12;;;;;;;5.68;1.25;;;;;;;9.75;72.35;101567.16;5059349;27;97871;-81
2023/10/16 03:57:39;;;;;;;10.63;1.40;;;;;;;9.80;72.26;101570.56;5057384;27;96729;-80
2023/10/16 04:00:14;;;;;;;5.85;0.80;;;;;;;10.03;71.35;101558.69;5051005;27;96881;-80
2023/10/16 04:02:41;;;;;;;5.75;0.85;;;;;;;10.03;70.44;101554.28;5048013;27;97915;-83
2023/10/16 04:05:29;;;;;;;4.95;0.90;;;;;;;10.05;70.61;101557.75;5052550;27;99483;-83
2023/10/16 04:07:55;;;;;;;8.10;1.30;;;;;;;10.19;70.46;101552.22;5047681;27;96820;-83
2023/10/16 04:10:28;;;;;;;4.53;0.95;;;;;;;10.12;69.91;101554.06;5047725;27;96793;-84
2023/10/16 04:12:55;;;;;;;6.20;1.00;;;;;;;10.10;70.33;101552.38;5046728;27;100245;-83
2023/10/16 04:15:37;;;;;;;7.20;1.30;;;;;;;9.97;70.57;101550.00;5050546;27;98302;-83
2023/10/16 04:18:04;;;;;;;6.18;1.27;;;;;;;10.02;70.79;101563.09;5048039;27;96832;-83
2023/10/16 04:20:43;;;;;;;6.60;0.95;;;;;;;10.23;70.07;101553.91;5055409;27;96979;-83
2023/10/16 04:23:29;;;;;;;5.47;1.10;;;;;;;10.10;70.04;101547.97;5049952;27;98933;-78
2023/10/16 04:29:20;;;;;;;6.85;0.77;;;;;;;9.81;71.58;101551.19;5048087;27;96965;-77
2023/10/16 04:31:44;;;;;;;6.57;1.00;;;;;;;9.73;72.17;101552.22;5043796;27;99022;-78
2023/10/16 04:34:24;;;;;;;7.88;1.05;;;;;;;9.63;72.75;101561.22;5047575;27;99596;-78
2023/10/16 04:36:52;;;;;;;4.72;0.75;;;;;;;9.58;72.93;101562.16;5047792;27;99093;-79
2023/10/16 04:41:37;;;;;;;10.05;1.77;;;;;;;9.86;71.46;101559.88;5047525;27;96804;-78
2023/10/16 04:47:55;;;;;;;5.15;1.05;;;;;;;9.83;71.63;101562.59;5048671;27;98906;-79
2023/10/16 04:50:29;;;;;;;;;;;;;;;9.77;72.24;101562.72;5052236;27;97428;-78
2023/10/16 04:53:07;;;;;;;3.72;0.93;;;;;;;9.85;71.61;101567.81;5045280;27;96960;-78
2023/10/16 04:55:53;;;;;;;7.22;1.38;;;;;;;9.77;71.80;101562.72;5051408;27;101091;-78
2023/10/16 04:58:38;;;;;;;8.75;1.05;;;;;;;9.53;72.96;101560.53;5047554;27;99237;-79
2023/10/16 05:06:48;;;;;;;8.20;1.30;;;;;;;9.88;71.52;101565.13;5049201;27;98802;-83
2023/10/16 06:15:20;;;;;;;7.75;1.83;;;;;;;9.95;71.70;101601.09;5044341;27;100516;-75
2023/10/16 06:17:47;;;;;;;8.48;1.50;;;;;;;10.02;71.65;101597.44;5046727;27;98719;-75
2023/10/16 06:20:20;;;;;;;7.65;1.17;;;;;;;9.66;72.48;101592.81;5048139;27;96827;-77
2023/10/16 06:22:51;;;;;;;10.40;1.30;;;;;;;9.78;72.44;101601.38;5049395;27;98874;-77
2023/10/16 06:25:19;;;;;;;6.80;1.10;;;;;;;9.71;72.24;101605.06;5050516;27;98776;-78
2023/10/16 06:27:46;;;;;;;4.18;0.90;;;;;;;9.99;71.92;101608.91;5043759;27;96794;-76
2023/10/16 06:30:19;;;;;;;5.63;1.00;;;;;;;9.89;72.22;101614.41;5046310;27;97210;-78
2023/10/16 06:32:49;;;;;;;7.55;1.75;;;;;;;9.99;71.91;101611.53;5047885;27;98954;-76
2023/10/16 06:35:18;;;;;;;7.20;1.52;;;;;;;9.70;73.32;101608.59;5049717;27;98311;-78
2023/10/16 06:37:51;;;;;;;6.78;1.00;;;;;;;10.14;71.88;101614.78;5052058;27;96737;-78
2023/10/16 06:40:24;;;;;;;8.02;1.40;;;;;;;10.18;71.30;101611.22;5047270;27;97722;-77
2023/10/16 06:42:54;;;;;;;7.32;1.73;;;;;;;10.16;71.42;101613.88;5042224;27;98921;-77
2023/10/16 06:45:22;;;;;;;9.07;2.20;;;;;;;10.38;70.36;101611.66;5045613;27;98768;-77
2023/10/16 06:47:48;;;;;;;6.50;1.73;;;;;;;10.21;70.80;101612.03;5038974;27;96810;-77
2023/10/16 06:52:59;;;;;;;6.40;2.20;;;;;;;9.93;72.19;101622.22;5039494;27;98829;-72
2023/10/16 06:55:25;;;;;;;5.97;1.90;;;;;;;10.27;71.36;101627.75;5042202;27;98749;-78
2023/10/16 06:57:52;;;;;;;11.05;1.30;;;;;;;10.47;70.05;101624.69;5047692;27;96800;-76
2023/10/16 07:00:23;;;;;;;8.60;1.33;;;;;;;10.82;68.86;101623.94;5046407;27;97040;-77
2023/10/16 07:02:52;;;;;;;6.75;1.30;;;;;;;10.77;68.84;101617.88;5041660;27;100103;-78
2023/10/16 07:05:22;;;;;;;4.85;1.30;;;;;;;10.53;69.37;101608.72;5044354;27;99245;-78
2023/10/16 07:07:48;;;;;;;5.50;1.08;;;;;;;10.57;69.73;101618.31;5047316;27;96814;-77
2023/10/16 07:10:16;;;;;;;9.52;1.27;;;;;;;10.87;68.60;101615.91;5050501;27;96669;-77
2023/10/16 07:12:56;;;;;;;6.57;1.40;;;;;;;10.93;67.69;101611.34;5045064;27;101273;-76
2023/10/16 07:15:25;;;;;;;8.40;1.60;;;;;;;10.81;68.37;101608.09;5045519;27;99057;-77
2023/10/16 07:17:51;;;;;;;8.95;1.33;;;;;;;11.21;67.55;101614.19;5043401;27;98095;-76
2023/10/16 07:20:27;;;;;;;8.65;2.05;;;;;;;11.16;67.13;101611.66;5045003;27;96923;-77
2023/10/16 07:22:59;;;;;;;6.55;1.20;;;;;;;11.17;66.89;101617.81;5044084;27;100062;-77
2023/10/16 07:25:37;;;;;;;9.98;1.42;;;;;;;11.27;67.05;101610.53;5049167;27;98891;-77
2023/10/16 07:28:08;;;;;;;9.38;1.10;;;;;;;11.45;66.11;101616.22;5047462;27;97089;-77
2023/10/16 07:30:36;;;;;;;9.07;1.95;;;;;;;11.19;66.52;101616.88;5042614;27;96735;-78
2023/10/16 07:33:02;;;;;;;6.30;1.85;;;;;;;10.97;67.98;101623.56;5041980;27;98883;-78
2023/10/16 07:35:28;;;;;;;13.63;5.00;;;;;;;11.32;66.79;101621.88;5046852;27;99142;-77
2023/10/16 07:37:55;;;;;;;9.15;2.75;;;;;;;11.43;66.29;101627.75;5044926;27;97210;-78
2023/10/16 07:40:22;;;;;;;6.32;1.33;;;;;;;11.34;66.46;101620.94;5045250;27;98209;-78
2023/10/16 07:42:52;;;;;;;10.70;1.73;;;;;;;11.53;65.93;101637.22;5045767;27;99115;-78
2023/10/16 07:45:20;;;;;;;5.32;1.15;;;;;;;11.86;64.58;101625.78;5043782;27;99146;-78
2023/10/16 07:47:48;;;;;;;5.03;1.40;;;;;;;12.04;63.61;101634.13;5043939;27;96804;-77
2023/10/16 07:50:15;;;;;;;9.90;1.88;;;;;;;12.14;64.12;101630.34;5041619;27;97660;-77
2023/10/16 07:52:42;;;;;;;5.05;1.60;;;;;;;12.20;62.48;101631.03;5042711;27;99234;-78
2023/10/16 07:55:18;;;;;;;5.18;1.17;;;;;;;12.17;63.43;101630.22;5039811;27;99197;-78
2023/10/16 07:57:44;;;;;;;11.45;2.05;;;;;;;12.32;62.74;101641.28;5047991;27;96945;-78
2023/10/16 08:00:14;;;;;;;7.45;1.70;;;;;;;11.95;63.69;101636.09;5046412;27;97390;-78
2023/10/16 08:02:45;;;;;;;5.55;1.35;;;;;;;12.23;63.14;101641.53;5038470;27;97870;-77
2023/10/16 08:05:15;;;;;;;4.55;1.52;;;;;;;12.47;62.04;101641.75;5038375;27;97556;-77
2023/10/16 08:07:47;;;;;;;5.30;1.38;;;;;;;12.48;62.16;101640.81;5043877;27;96842;-77
2023/10/16 08:12:58;;;;;;;6.35;1.38;;;;;;;13.00;60.68;101638.31;5040630;27;97153;-78
2023/10/16 08:15:27;;;;;;;8.73;1.42;;;;;;;12.67;61.08;101639.34;5044140;27;97666;-77
2023/10/16 08:17:54;;;;;;;7.60;1.35;;;;;;;12.73;61.08;101641.84;5044617;27;96839;-77
2023/10/16 08:20:20;;;;;;;5.40;1.33;;;;;;;12.80;61.67;101643.38;5038319;27;96821;-77
2023/10/16 08:22:48;;;;;;;9.32;2.20;;;;;;;12.72;61.18;101645.41;5045378;27;97865;-78
2023/10/16 08:25:30;;;;;;;6.57;1.75;;;;;;;13.06;60.90;101646.09;5041411;27;97679;-78
2023/10/16 08:27:58;;;;;;;4.93;1.25;;;;;;;13.43;58.68;101644.94;5040539;27;96815;-78
2023/10/16 08:30:49;;;;;;;15.50;2.00;;;;;;;13.37;59.32;101656.66;5042463;27;96974;-79
2023/10/16 08:33:16;;;;;;;5.05;1.20;;;;;;;13.83;57.86;101655.97;5034954;27;99723;-77
2023/10/16 08:35:43;;;;;;;5.20;1.13;;;;;;;13.81;57.61;101656.94;5044180;27;102045;-79
2023/10/16 08:38:13;;;;;;;5.70;1.67;;;;;;;13.68;57.83;101658.28;5044617;27;97458;-78
2023/10/16 08:40:43;;;;;;;5.18;1.33;;;;;;;13.61;58.32;101659.41;5043546;27;98523;-78
2023/10/16 08:43:10;;;;;;;7.47;1.88;;;;;;;13.65;58.40;101658.38;5039845;27;98913;-78
2023/10/16 08:45:47;;;;;;;5.55;0.90;;;;;;;14.04;56.95;101646.38;5044605;27;98871;-77
2023/10/16 08:48:17;;;;;;;6.65;1.30;;;;;;;14.20;55.83;101654.66;5045828;27;96873;-78
2023/10/16 08:50:52;;;;;;;5.60;1.48;;;;;;;14.02;56.46;101645.56;5046894;27;96904;-78
2023/10/16 08:53:31;;;;;;;9.40;1.35;;;;;;;13.85;57.66;101646.13;5040340;27;98920;-78
2023/10/16 08:55:59;;;;;;;4.75;1.10;;;;;;;14.10;56.77;101640.84;5045983;27;98756;-78
2023/10/16 08:58:26;;;;;;;7.63;1.50;;;;;;;14.22;55.77;101637.75;5041337;27;96959;-78
2023/10/16 09:00:55;;;;;;;10.38;1.45;;;;;;;14.31;56.04;101641.84;5044510;27;97161;-77
2023/10/16 09:03:23;;;;;;;11.07;1.25;;;;;;;14.60;54.88;101646.97;5034739;27;98926;-78
2023/10/16 09:05:51;;;;;;;15.77;1.60;;;;;;;13.91;56.51;101653.88;5040242;27;98009;-78
2023/10/16 09:08:18;;;;;;;9.27;1.60;;;;;;;14.29;55.38;101654.34;5044369;27;96802;-77
2023/10/16 09:10:44;;;;;;;3.88;1.00;;;;;;;14.59;54.26;101652.34;5037033;27;97175;-78
2023/10/16 09:13:17;;;;;;;6.25;1.10;;;;;;;14.19;55.37;101652.91;5045697;27;98183;-77
2023/10/16 09:15:46;;;;;;;5.13;1.67;;;;;;;14.46;55.25;101659.06;5040042;27;98998;-78
2023/10/16 09:18:15;;;;;;;7.47;1.30;;;;;;;14.74;53.85;101655.31;5043926;27;97207;-78
2023/10/16 09:20:42;;;;;;;8.00;1.67;;;;;;;14.85;53.89;101654.88;5044786;27;96887;-78
2023/10/16 09:23:13;;;;;;;9.48;1.38;;;;;;;14.74;53.96;101663.28;5040357;27;101968;-77
2023/10/16 09:25:43;;;;;;;4.60;1.23;;;;;;;14.84;53.11;101661.13;5044676;27;98768;-77
2023/10/16 09:28:16;;;;;;;7.28;2.90;;;;;;;15.09;52.89;101661.06;5048080;27;97320;-77
2023/10/16 09:30:43;;;;;;;8.95;1.30;;;;;;;15.18;52.39;101657.13;5041289;27;96817;-78
2023/10/16 09:33:10;;;;;;;40.03;2.30;;;;;;;15.36;51.16;101657.25;5047498;27;98974;-78
2023/10/16 09:35:43;;;;;;;5.85;1.17;;;;;;;15.06;51.73;101661.16;5046641;27;99744;-78
2023/10/16 09:38:17;;;;;;;10.55;1.20;;;;;;;15.40;51.70;101668.66;5046946;27;97272;-79
2023/10/16 09:40:45;;;;;;;3.15;1.40;;;;;;;15.58;51.04;101662.59;5045494;27;97713;-78
2023/10/16 09:43:24;;;;;;;9.63;1.33;;;;;;;15.60;50.59;101660.75;5043551;27;98985;-78
2023/10/16 09:46:15;;;;;;;6.95;1.75;;;;;;;15.88;49.93;101660.47;5043870;27;99130;-77
2023/10/16 09:48:38;;;;;;;4.05;1.10;;;;;;;14.96;51.99;101663.34;5050413;27;97905;-78
2023/10/16 09:51:09;;;;;;;10.95;1.80;;;;;;;14.83;52.43;101666.53;5047391;27;97104;-78
2023/10/16 09:53:35;;;;;;;4.90;1.15;;;;;;;14.79;52.55;101671.09;5047648;27;99503;-78
2023/10/16 09:56:03;;;;;;;5.47;1.02;;;;;;;14.46;53.38;101673.22;5049540;27;99246;-78
2023/10/16 09:58:34;;;;;;;5.05;1.15;;;;;;;14.95;51.86;101679.34;5048670;27;97183;-78
2023/10/16 10:01:06;;;;;;;6.15;1.40;;;;;;;15.31;50.72;101674.34;5046687;27;98890;-79
2023/10/16 10:03:36;;;;;;;4.57;0.80;;;;;;;15.50;49.51;101676.22;5044105;27;99254;-78
2023/10/16 10:06:08;;;;;;;9.43;1.10;;;;;;;15.29;49.02;101666.47;5038302;27;101271;-78
2023/10/16 10:08:53;;;;;;;7.95;1.52;;;;;;;14.55;50.58;101672.91;5050535;27;96801;-78
2023/10/16 10:11:37;;;;;;;11.25;1.00;;;;;;;14.32;51.84;101671.03;5042156;27;97428;-77
2023/10/16 10:14:26;;;;;;;10.40;1.52;;;;;;;14.02;52.67;101666.81;5045772;27;100163;-78
2023/10/16 10:16:56;;;;;;;6.65;1.35;;;;;;;14.62;51.53;101671.75;5050010;27;99140;-78
2023/10/16 10:19:31;;;;;;;6.80;1.38;;;;;;;14.87;50.96;101668.13;5048632;27;97190;-77
2023/10/16 10:22:05;;;;;;;7.28;1.00;;;;;;;15.23;50.30;101664.00;5048693;27;100061;-78
2023/10/16 10:24:34;;;;;;;4.75;1.13;;;;;;;15.28;49.29;101664.72;5040967;27;101449;-78
2023/10/16 10:27:05;;;;;;;3.70;1.00;;;;;;;15.29;49.69;101670.91;5046633;27;99165;-77
2023/10/16 10:29:32;;;;;;;10.52;1.70;;;;;;;15.42;48.82;101670.34;5045624;27;96906;-77
2023/10/16 10:32:06;;;;;;;3.45;0.90;;;;;;;15.29;49.23;101663.78;5037018;27;96958;-77
2023/10/16 10:34:33;;;;;;;7.60;1.20;;;;;;;15.84;48.46;101669.50;5040640;27;98889;-77
2023/10/16 10:37:00;;;;;;;7.32;1.30;;;;;;;15.71;46.66;101671.81;5042146;27;98869;-78
2023/10/16 10:39:46;;;;;;;4.55;0.93;;;;;;;15.91;47.16;101666.50;5045449;27;96832;-77
2023/10/16 10:42:23;;;;;;;6.20;1.17;;;;;;;15.49;48.71;101663.81;5049045;27;97637;-78
2023/10/16 10:45:17;;;;;;;5.32;1.48;;;;;;;15.78;48.25;101669.75;5043225;27;99674;-78
2023/10/16 10:47:44;;;;;;;5.43;0.98;;;;;;;15.81;46.88;101672.31;5043356;27;100741;-78
2023/10/16 10:50:13;;;;;;;5.07;0.77;;;;;;;15.90;46.46;101669.25;5042293;27;97064;-78
2023/10/16 10:52:40;;;;;;;6.03;1.42;;;;;;;15.88;46.13;101663.97;5040379;27;101321;-78
2023/10/16 10:55:18;;;;;;;6.30;1.00;;;;;;;15.73;45.56;101664.63;5044423;27;101281;-78
2023/10/16 10:57:47;;;;;;;7.43;1.13;;;;;;;15.80;46.12;101665.25;5050348;27;99311;-76
2023/10/16 11:00:32;;;;;;;9.38;0.98;;;;;;;15.62;46.36;101658.88;5045030;27;97221;-78
2023/10/16 11:03:08;;;;;;;5.70;0.90;;;;;;;15.56;46.55;101660.97;5046292;27;96752;-78
2023/10/16 11:05:39;;;;;;;6.03;1.35;;;;;;;15.82;46.59;101660.69;5044049;27;99222;-77
2023/10/16 11:08:26;;;;;;;4.85;0.95;;;;;;;15.90;46.34;101663.91;5042538;27;99550;-77
2023/10/16 11:10:56;;;;;;;3.85;1.20;;;;;;;15.06;48.97;101659.38;5042808;27;97724;-78
2023/10/16 11:13:26;;;;;;;3.15;1.02;;;;;;;15.38;48.52;101650.09;5047347;27;96855;-78
2023/10/16 11:15:54;;;;;;;4.22;1.08;;;;;;;15.56;48.34;101663.63;5049458;27;99012;-77
2023/10/16 11:18:22;;;;;;;10.45;1.50;;;;;;;15.52;48.04;101661.06;5044481;27;98733;-78
2023/10/16 11:20:49;;;;;;;9.45;1.30;;;;;;;15.81;47.80;101664.31;5047997;27;96854;-79
2023/10/16 11:23:17;;;;;;;5.38;1.33;;;;;;;16.01;46.91;101650.13;5056105;27;96796;-80
2023/10/16 11:25:47;;;;;;;6.03;1.30;;;;;;;16.03;46.49;101654.44;5044616;27;97700;-79
2023/10/16 11:28:20;;;;;;;2.85;0.77;;;;;;;15.74;45.55;101655.72;5042896;27;98664;-79
2023/10/16 11:30:49;;;;;;;4.05;1.05;;;;;;;15.92;45.09;101646.06;5041260;27;96784;-79
2023/10/16 11:33:24;;;;;;;2.55;0.70;;;;;;;16.21;44.65;101642.97;5045500;27;97257;-77
2023/10/16 11:35:54;;;;;;;7.17;1.10;;;;;;;16.30;44.56;101639.03;5044871;27;97776;-79
2023/10/16 11:38:29;;;;;;;6.85;1.33;;;;;;;16.42;44.91;101648.25;5046235;27;99239;-78
2023/10/16 11:40:56;;;;;;;5.60;1.30;;;;;;;16.49;44.76;101636.38;5046103;27;98201;-78
2023/10/16 11:43:24;;;;;;;11.38;1.80;;;;;;;16.31;45.25;101638.97;5043397;27;98798;-78
2023/10/16 11:45:53;;;;;;;3.97;0.80;;;;;;;16.40;45.08;101647.50;5047505;27;99040;-78
2023/10/16 11:48:31;;;;;;;5.25;0.80;;;;;;;16.42;45.24;101638.47;5047174;27;98315;-78
2023/10/16 11:51:06;;;;;;;4.47;0.77;;;;;;;16.37;43.57;101632.47;5052928;27;96949;-78
2023/10/16 11:53:34;;;;;;;4.03;1.02;;;;;;;16.63;42.80;101633.97;5051736;27;97211;-77
2023/10/16 11:56:01;;;;;;;3.75;0.90;;;;;;;16.74;42.54;101631.66;5046941;27;99104;-78
2023/10/16 11:58:31;;;;;;;4.05;0.98;;;;;;;16.08;44.89;101625.78;5043357;27;102301;-79
2023/10/16 12:01:08;;;;;;;4.18;1.02;;;;;;;16.26;45.15;101638.31;5044861;27;96872;-77
2023/10/16 12:03:37;;;;;;;1.80;0.70;;;;;;;15.88;44.76;101639.13;5041177;27;97961;-77
2023/10/16 12:06:08;;;;;;;4.85;0.85;;;;;;;15.69;45.43;101635.50;5040645;27;100078;-78
2023/10/16 12:08:37;;;;;;;4.15;1.05;;;;;;;15.67;45.59;101634.72;5042471;27;99009;-78
2023/10/16 12:11:06;;;;;;;7.38;1.00;;;;;;;15.77;45.19;101636.91;5044143;27;97905;-78
2023/10/16 12:13:34;;;;;;;2.95;0.85;;;;;;;15.84;44.82;101632.19;5046212;27;96805;-78
2023/10/16 12:16:01;;;;;;;6.45;1.60;;;;;;;15.81;44.79;101637.66;5046491;27;99339;-78
2023/10/16 12:18:28;;;;;;;4.13;0.82;;;;;;;15.71;44.12;101631.84;5046095;27;100772;-79
2023/10/16 12:20:59;;;;;;;3.47;0.70;;;;;;;16.05;43.72;101639.25;5043982;27;97161;-79
2023/10/16 12:23:26;;;;;;;3.90;0.88;;;;;;;15.81;44.69;101632.34;5042879;27;96738;-78
2023/10/16 12:25:53;;;;;;;6.38;0.80;;;;;;;16.08;44.51;101633.78;5042672;27;99009;-79
2023/10/16 12:28:20;;;;;;;5.95;0.82;;;;;;;16.22;44.30;101634.03;5045098;27;99871;-77
2023/10/16 12:30:48;;;;;;;4.18;1.08;;;;;;;15.85;45.14;101629.47;5041921;27;96914;-78
2023/10/16 12:33:15;;;;;;;6.53;1.15;;;;;;;16.05;45.47;101635.72;5037650;27;97509;-77
2023/10/16 12:35:41;;;;;;;4.47;0.85;;;;;;;16.34;45.60;101628.13;5041915;27;97846;-78
2023/10/16 12:38:07;;;;;;;6.47;1.48;;;;;;;16.09;46.33;101637.31;5041454;27;98783;-77
2023/10/16 12:40:38;;;;;;;6.13;0.88;;;;;;;16.05;47.20;101630.38;5045567;27;96852;-76
2023/10/16 12:43:06;;;;;;;5.18;1.10;;;;;;;16.18;46.26;101634.25;5041653;27;97328;-78
2023/10/16 12:45:33;;;;;;;5.80;1.30;;;;;;;15.83;46.85;101631.31;5035074;27;99102;-76
2023/10/16 12:48:01;;;;;;;4.50;1.42;;;;;;;15.79;47.86;101637.72;5040302;27;98935;-78
2023/10/16 12:50:29;;;;;;;8.55;1.60;;;;;;;15.83;47.64;101630.44;5037956;27;98244;-78
2023/10/16 12:52:56;;;;;;;6.55;1.75;;;;;;;15.39;48.50;101641.16;5044554;27;98165;-77
2023/10/16 12:55:23;;;;;;;7.20;1.40;;;;;;;15.62;47.60;101632.22;5044732;27;98954;-77
2023/10/16 12:57:50;;;;;;;5.53;1.10;;;;;;;15.72;46.98;101638.06;5052975;27;102657;-79
2023/10/16 13:00:18;;;;;;;3.35;0.77;;;;;;;15.79;47.33;101640.38;5048514;27;97683;-78
2023/10/16 13:02:45;;;;;;;5.72;1.40;;;;;;;15.65;47.68;101639.25;5045834;27;97680;-78
2023/10/16 13:05:14;;;;;;;3.08;0.80;;;;;;;15.56;48.31;101637.81;5044918;27;102540;-78